Flight Track Log - Related Links

Times and Time Zones

All times are in EDT time to prevent confusion due to time zone crossing. See the AWE1780 flight status page for this flight to view local times or setup timezone preferences in your user account.


Time Position Orientation Groundspeed Altitude Reporting Facility
EDT Latitude Longitude Course Direction KTS MPH feet Rate Location/Type
Wed 10:24:11 PM 35.1969 -80.9356 72° East 152 175 1,500  Level Atlanta Center
Wed 10:25:00 PM 35.1575 -80.9344 179° South 171 197 2,900 1,800 Climbing Atlanta Center
Wed 10:26:00 PM 35.1157 -80.6228 29° Northeast  Level FlightAware Approximate
Wed 10:26:01 PM 35.1039 -80.8781 139° Southeast 276 318 4,800  Level Atlanta Center
Wed 10:27:00 PM 35.2134 -80.5571 30° Northeast  Level FlightAware Approximate
Wed 10:27:01 PM 35.0972 -80.7844 95° East 302 348 8,000  Level Atlanta Center
Wed 10:27:32 PM 35.1003 -80.7411 85° East 290 334 9,200 2,656 Climbing Atlanta Center
Wed 10:28:00 PM 35.3098 -80.4883 30° Northeast  Level FlightAware Approximate
Wed 10:28:02 PM 35.1092 -80.6875 79° East 295 339 10,700  Level Atlanta Center
Wed 10:28:32 PM 35.1225 -80.6436 70° East 343 395 11,300 2,000 Climbing Atlanta Center
Wed 10:29:00 PM 35.3559 -80.3812 72° East  Level FlightAware Approximate
Wed 10:29:32 PM 35.2003 -80.5819 33° Northeast 344 396 13,700  Level Atlanta Center
Wed 10:31:32 PM 35.3492 -80.4203 42° Northeast 328 377 18,800 2,494 Climbing Washington Center
Wed 10:32:30 PM 35.3875 -80.2953 69° East 350 403 21,100 2,067 Climbing Washington Center
Wed 10:33:31 PM 35.4239 -80.1672 71° East 372 428 22,900 1,131 Climbing Washington Center
Wed 10:34:32 PM 35.4600 -80.0394 71° East 392 451 23,400 1,140 Climbing Washington Center
Wed 10:35:32 PM 35.4919 -79.9058 74° East 397 457 25,200 1,729 Climbing Washington Center
Wed 10:36:30 PM 35.5281 -79.7675 72° East 407 468 26,800 915 Climbing Washington Center
Wed 10:37:30 PM 35.5644 -79.6264 72° East 419 482 27,000 99 Climbing Washington Center
Wed 10:38:31 PM 35.6083 -79.4983 67° East 436 502 27,000  Level Washington Center
Wed 10:39:32 PM 35.7103 -79.3781 44° Northeast 439 505 27,000  Level Washington Center
Wed 10:40:32 PM 35.8117 -79.2675 41° Northeast 461 531 27,000  Level Washington Center
Wed 10:41:30 PM 35.9131 -79.1569 41° Northeast 474 545 27,000  Level Washington Center
Wed 10:42:30 PM 36.0122 -79.0458 42° Northeast 479 551 27,000  Level Washington Center
Wed 10:43:31 PM 36.1117 -78.9319 43° Northeast 479 551 27,000  Level Washington Center
Wed 10:44:32 PM 36.2086 -78.8200 43° Northeast 479 551 27,000  Level Washington Center
Wed 10:45:32 PM 36.3094 -78.7083 42° Northeast 479 551 27,000  Level Washington Center
Wed 10:46:30 PM 36.4064 -78.5961 43° Northeast 479 551 27,000  Level Washington Center
Wed 10:47:31 PM 36.5031 -78.4861 42° Northeast 469 540 27,000  Level Washington Center
Wed 10:48:30 PM 36.6014 -78.3861 39° Northeast 462 532 27,000  Level Washington Center
Wed 10:49:31 PM 36.7094 -78.3072 30° Northeast 456 525 27,000  Level Washington Center
Wed 10:50:32 PM 36.8178 -78.2278 30° Northeast 451 519 27,000  Level Washington Center
Wed 10:51:32 PM 36.9300 -78.1486 29° Northeast 451 519 27,000  Level Washington Center
Wed 10:52:30 PM 37.0422 -78.0692 29° Northeast 451 519 27,000  Level Washington Center
Wed 10:53:30 PM 37.1522 -77.9892 30° Northeast 451 519 27,000  Level Washington Center
Wed 10:54:31 PM 37.2644 -77.9092 30° Northeast 451 519 27,000  Level Washington Center
Wed 10:55:30 PM 37.3744 -77.8317 29° Northeast 451 519 27,000 -403 Level Washington Center
Wed 10:56:30 PM 37.4864 -77.7511 30° Northeast 451 519 26,200 -1,250 Descending Washington Center
Wed 10:57:30 PM 37.5942 -77.6703 31° Northeast 451 519 24,500 -1,983 Descending Washington Center
Wed 10:58:31 PM 37.6997 -77.5944 30° Northeast 446 513 22,200 -2,281 Descending Washington Center
Wed 10:59:31 PM 37.8011 -77.5183 31° Northeast 436 502 19,900 -2,300 Descending Washington Center
Wed 11:00:31 PM 37.9003 -77.4469 30° Northeast 419 482 17,600 -2,182 Descending Washington Center
Wed 11:01:32 PM 37.9911 -77.3781 31° Northeast 405 466 15,500 -2,067 Descending Washington Center
Wed 11:02:30 PM 38.0711 -77.3247 28° Northeast 371 427 13,500 -2,067 Descending Washington Center
Wed 11:03:31 PM 38.1617 -77.2581 30° Northeast 371 427 11,400 -1,736 Descending Washington Center
Wed 11:04:31 PM 38.2458 -77.1939 31° Northeast 361 415 10,000 -694 Descending Washington Center
Wed 11:05:32 PM 38.3403 -77.1483 21° North 361 415 10,000  Level Washington Center
Wed 11:06:32 PM 38.4386 -77.1292 North 356 410 10,000  Level Washington Center
Wed 11:07:30 PM 38.5347 -77.1072 10° North 356 410 10,000  Level Washington Center
Wed 11:08:31 PM 38.6267 -77.0878 North 344 396 10,000 -607 Level Washington Center
Wed 11:08:59 PM 38.6833 -77.0667 16° North 279 321 9,100 -1,916 Descending Potomac TRACON
Wed 11:10:30 PM 38.7792 -77.0828 353° North 289 333 6,200 -1,900 Descending Washington Center
Wed 11:10:59 PM 38.8167 -77.1000 340° North 277 319 5,300 -1,590 Descending Potomac TRACON
Wed 11:11:53 PM 38.8667 -77.1667 314° West 259 298 4,000 -1,353 Descending Potomac TRACON
Wed 11:12:41 PM 38.9167 -77.2000 333° Northwest 256 295 3,000 -1,250 Descending Potomac TRACON

Login

Don't have an account? Register now (free) for customized features, flight alerts, and more!